sensor_id;sensor_type;location;lat;lon;timestamp;pressure;altitude;pressure_sealevel;temperature;humidity
18985;BME280;9626;52.552;13.436;2022-08-21T00:01:19;100978.75;;;19.32;100.00
18985;BME280;9626;52.552;13.436;2022-08-21T00:03:45;100974.25;;;19.33;100.00
18985;BME280;9626;52.552;13.436;2022-08-21T00:06:11;100973.53;;;19.29;100.00
18985;BME280;9626;52.552;13.436;2022-08-21T00:08:36;100972.81;;;19.25;100.00
18985;BME280;9626;52.552;13.436;2022-08-21T00:11:20;100970.78;;;19.31;100.00
18985;BME280;9626;52.552;13.436;2022-08-21T00:13:46;100977.84;;;19.32;100.00
18985;BME280;9626;52.552;13.436;2022-08-21T00:16:18;100979.84;;;19.28;100.00
18985;BME280;9626;52.552;13.436;2022-08-21T00:18:44;100977.94;;;19.30;100.00
18985;BME280;9626;52.552;13.436;2022-08-21T00:21:12;100972.81;;;19.25;100.00
18985;BME280;9626;52.552;13.436;2022-08-21T00:23:56;100965.88;;;19.21;100.00
18985;BME280;9626;52.552;13.436;2022-08-21T00:26:40;100963.97;;;19.23;100.00
18985;BME280;9626;52.552;13.436;2022-08-21T00:29:08;100963.97;;;19.23;100.00
18985;BME280;9626;52.552;13.436;2022-08-21T00:31:33;100962.19;;;19.24;100.00
18985;BME280;9626;52.552;13.436;2022-08-21T00:33:59;100965.06;;;19.19;100.00
18985;BME280;9626;52.552;13.436;2022-08-21T00:36:24;100968.56;;;19.21;100.00
18985;BME280;9626;52.552;13.436;2022-08-21T00:39:09;100970.44;;;19.19;100.00
18985;BME280;9626;52.552;13.436;2022-08-21T00:41:53;100976.63;;;19.21;100.00
18985;BME280;9626;52.552;13.436;2022-08-21T00:44:19;100969.66;;;19.17;100.00
18985;BME280;9626;52.552;13.436;2022-08-21T00:46:44;100971.56;;;19.15;100.00
18985;BME280;9626;52.552;13.436;2022-08-21T00:49:11;100970.69;;;19.15;100.00
18985;BME280;9626;52.552;13.436;2022-08-21T00:51:45;100972.66;;;19.11;100.00
18985;BME280;9626;52.552;13.436;2022-08-21T00:54:31;100966.34;;;19.12;100.00
18985;BME280;9626;52.552;13.436;2022-08-21T00:57:47;100967.63;;;19.22;100.00
18985;BME280;9626;52.552;13.436;2022-08-21T01:00:19;100964.13;;;19.20;100.00
18985;BME280;9626;52.552;13.436;2022-08-21T01:02:46;100960.50;;;19.21;100.00
18985;BME280;9626;52.552;13.436;2022-08-21T01:05:12;100963.88;;;19.25;100.00
18985;BME280;9626;52.552;13.436;2022-08-21T01:07:40;100965.53;;;19.28;100.00
18985;BME280;9626;52.552;13.436;2022-08-21T01:10:49;100970.84;;;19.29;100.00
18985;BME280;9626;52.552;13.436;2022-08-21T01:13:36;100962.09;;;19.25;100.00
18985;BME280;9626;52.552;13.436;2022-08-21T01:16:09;100965.97;;;19.20;100.00
18985;BME280;9626;52.552;13.436;2022-08-21T01:18:34;100963.41;;;19.17;100.00
18985;BME280;9626;52.552;13.436;2022-08-21T01:23:33;100967.28;;;19.11;100.00
18985;BME280;9626;52.552;13.436;2022-08-21T01:25:58;100961.16;;;19.09;100.00
18985;BME280;9626;52.552;13.436;2022-08-21T01:28:52;100957.56;;;19.08;100.00
18985;BME280;9626;52.552;13.436;2022-08-21T01:31:23;100960.44;;;19.05;100.00
18985;BME280;9626;52.552;13.436;2022-08-21T01:34:09;100959.41;;;19.08;100.00
18985;BME280;9626;52.552;13.436;2022-08-21T01:36:35;100965.88;;;19.04;100.00
18985;BME280;9626;52.552;13.436;2022-08-21T01:39:02;100965.22;;;18.99;100.00
18985;BME280;9626;52.552;13.436;2022-08-21T01:41:28;100969.81;;;18.97;100.00
18985;BME280;9626;52.552;13.436;2022-08-21T01:43:53;100970.91;;;18.92;100.00
18985;BME280;9626;52.552;13.436;2022-08-21T01:46:19;100983.81;;;18.84;100.00
18985;BME280;9626;52.552;13.436;2022-08-21T01:48:44;100971.19;;;18.86;100.00
18985;BME280;9626;52.552;13.436;2022-08-21T01:51:10;100968.66;;;18.83;100.00
18985;BME280;9626;52.552;13.436;2022-08-21T01:53:36;100969.59;;;18.82;100.00
18985;BME280;9626;52.552;13.436;2022-08-21T01:56:06;100964.41;;;18.79;100.00
18985;BME280;9626;52.552;13.436;2022-08-21T01:58:32;100965.56;;;18.73;100.00
18985;BME280;9626;52.552;13.436;2022-08-21T02:01:17;100962.09;;;18.71;100.00
18985;BME280;9626;52.552;13.436;2022-08-21T02:03:43;100967.28;;;18.74;100.00
18985;BME280;9626;52.552;13.436;2022-08-21T02:06:13;100974.19;;;18.80;100.00
18985;BME280;9626;52.552;13.436;2022-08-21T02:08:40;100970.69;;;18.78;100.00
18985;BME280;9626;52.552;13.436;2022-08-21T02:11:06;100966.28;;;18.77;100.00
18985;BME280;9626;52.552;13.436;2022-08-21T02:13:31;100964.56;;;18.76;100.00
18985;BME280;9626;52.552;13.436;2022-08-21T02:15:57;100962.16;;;18.70;100.00
18985;BME280;9626;52.552;13.436;2022-08-21T02:18:22;100965.00;;;18.67;100.00
18985;BME280;9626;52.552;13.436;2022-08-21T02:20:49;100957.72;;;18.69;100.00
18985;BME280;9626;52.552;13.436;2022-08-21T02:23:15;100965.78;;;18.69;100.00
18985;BME280;9626;52.552;13.436;2022-08-21T02:25:44;100964.00;;;18.69;100.00
18985;BME280;9626;52.552;13.436;2022-08-21T02:28:14;100965.13;;;18.64;100.00
18985;BME280;9626;52.552;13.436;2022-08-21T02:30:44;100966.88;;;18.65;100.00
18985;BME280;9626;52.552;13.436;2022-08-21T02:33:11;100959.84;;;18.62;100.00
18985;BME280;9626;52.552;13.436;2022-08-21T02:35:38;100967.13;;;18.60;100.00
18985;BME280;9626;52.552;13.436;2022-08-21T02:38:14;100962.75;;;18.57;100.00
18985;BME280;9626;52.552;13.436;2022-08-21T02:40:42;100960.25;;;18.54;100.00
18985;BME280;9626;52.552;13.436;2022-08-21T02:43:08;100959.28;;;18.55;100.00
18985;BME280;9626;52.552;13.436;2022-08-21T02:45:53;100967.72;;;18.48;100.00
18985;BME280;9626;52.552;13.436;2022-08-21T02:48:22;100956.34;;;18.42;100.00
18985;BME280;9626;52.552;13.436;2022-08-21T02:50:56;100959.03;;;18.42;100.00
18985;BME280;9626;52.552;13.436;2022-08-21T02:53:22;100966.13;;;18.44;100.00
18985;BME280;9626;52.552;13.436;2022-08-21T02:55:50;100958.16;;;18.42;100.00
18985;BME280;9626;52.552;13.436;2022-08-21T02:58:19;100952.22;;;18.35;100.00
18985;BME280;9626;52.552;13.436;2022-08-21T03:00:45;100961.44;;;18.30;100.00
18985;BME280;9626;52.552;13.436;2022-08-21T03:03:11;100967.22;;;18.20;100.00
18985;BME280;9626;52.552;13.436;2022-08-21T03:05:37;100962.88;;;18.18;100.00
18985;BME280;9626;52.552;13.436;2022-08-21T03:08:06;100959.84;;;18.26;100.00
18985;BME280;9626;52.552;13.436;2022-08-21T03:10:37;100963.72;;;18.18;100.00
18985;BME280;9626;52.552;13.436;2022-08-21T03:13:03;100961.88;;;18.20;100.00
18985;BME280;9626;52.552;13.436;2022-08-21T03:15:29;100956.00;;;18.12;100.00
18985;BME280;9626;52.552;13.436;2022-08-21T03:17:55;100956.28;;;18.06;100.00
18985;BME280;9626;52.552;13.436;2022-08-21T03:20:23;100955.03;;;17.94;100.00
18985;BME280;9626;52.552;13.436;2022-08-21T03:22:49;100953.22;;;17.95;100.00
18985;BME280;9626;52.552;13.436;2022-08-21T03:25:15;100957.69;;;17.94;100.00
18985;BME280;9626;52.552;13.436;2022-08-21T03:27:41;100958.22;;;18.02;100.00
18985;BME280;9626;52.552;13.436;2022-08-21T03:30:07;100960.19;;;17.99;100.00
18985;BME280;9626;52.552;13.436;2022-08-21T03:32:33;100959.09;;;18.03;100.00
18985;BME280;9626;52.552;13.436;2022-08-21T03:35:00;100956.97;;;17.90;100.00
18985;BME280;9626;52.552;13.436;2022-08-21T03:37:46;100950.94;;;17.85;100.00
18985;BME280;9626;52.552;13.436;2022-08-21T03:40:16;100949.50;;;17.78;100.00
18985;BME280;9626;52.552;13.436;2022-08-21T03:42:41;100958.97;;;17.85;100.00
18985;BME280;9626;52.552;13.436;2022-08-21T03:45:08;100959.53;;;17.94;100.00
18985;BME280;9626;52.552;13.436;2022-08-21T03:47:34;100950.47;;;17.96;100.00
18985;BME280;9626;52.552;13.436;2022-08-21T03:50:02;100954.81;;;17.99;100.00
18985;BME280;9626;52.552;13.436;2022-08-21T03:52:28;100961.13;;;17.98;100.00
18985;BME280;9626;52.552;13.436;2022-08-21T03:54:54;100953.38;;;17.92;100.00
18985;BME280;9626;52.552;13.436;2022-08-21T03:57:19;100954.28;;;17.90;100.00
18985;BME280;9626;52.552;13.436;2022-08-21T03:59:46;100959.91;;;17.84;100.00
18985;BME280;9626;52.552;13.436;2022-08-21T04:02:21;100960.06;;;17.81;100.00
18985;BME280;9626;52.552;13.436;2022-08-21T04:04:47;100962.88;;;17.78;100.00
18985;BME280;9626;52.552;13.436;2022-08-21T04:07:12;100961.41;;;17.71;100.00
18985;BME280;9626;52.552;13.436;2022-08-21T04:09:38;100961.75;;;17.63;100.00
18985;BME280;9626;52.552;13.436;2022-08-21T04:12:04;100968.28;;;17.57;100.00
18985;BME280;9626;52.552;13.436;2022-08-21T04:14:30;100970.13;;;17.55;100.00
18985;BME280;9626;52.552;13.436;2022-08-21T04:17:14;100971.72;;;17.60;100.00
18985;BME280;9626;52.552;13.436;2022-08-21T04:19:40;100976.75;;;17.67;100.00
18985;BME280;9626;52.552;13.436;2022-08-21T04:22:05;100972.09;;;17.71;100.00
18985;BME280;9626;52.552;13.436;2022-08-21T04:24:31;100978.13;;;17.76;100.00
18985;BME280;9626;52.552;13.436;2022-08-21T04:26:57;100975.31;;;17.79;100.00
18985;BME280;9626;52.552;13.436;2022-08-21T04:29:22;100980.88;;;17.74;100.00
18985;BME280;9626;52.552;13.436;2022-08-21T04:31:48;100974.06;;;17.67;100.00
18985;BME280;9626;52.552;13.436;2022-08-21T04:34:13;100965.31;;;17.64;100.00
18985;BME280;9626;52.552;13.436;2022-08-21T04:36:52;100965.31;;;17.64;100.00
18985;BME280;9626;52.552;13.436;2022-08-21T04:39:22;100966.19;;;17.64;100.00
18985;BME280;9626;52.552;13.436;2022-08-21T04:41:48;100966.31;;;17.61;100.00
18985;BME280;9626;52.552;13.436;2022-08-21T04:44:14;100970.66;;;17.64;100.00
18985;BME280;9626;52.552;13.436;2022-08-21T04:46:40;100967.97;;;17.64;100.00
18985;BME280;9626;52.552;13.436;2022-08-21T04:49:05;100967.97;;;17.64;100.00
18985;BME280;9626;52.552;13.436;2022-08-21T04:51:34;100974.25;;;17.63;100.00
18985;BME280;9626;52.552;13.436;2022-08-21T04:54:11;100970.72;;;17.62;100.00
18985;BME280;9626;52.552;13.436;2022-08-21T04:56:48;100971.53;;;17.64;100.00
18985;BME280;9626;52.552;13.436;2022-08-21T04:59:21;100971.53;;;17.64;100.00
18985;BME280;9626;52.552;13.436;2022-08-21T05:01:49;100977.81;;;17.63;100.00
18985;BME280;9626;52.552;13.436;2022-08-21T05:04:18;100970.50;;;17.67;100.00
18985;BME280;9626;52.552;13.436;2022-08-21T05:06:48;100974.78;;;17.71;100.00
18985;BME280;9626;52.552;13.436;2022-08-21T05:09:16;100974.22;;;17.64;100.00
18985;BME280;9626;52.552;13.436;2022-08-21T05:11:43;100974.22;;;17.64;100.00
18985;BME280;9626;52.552;13.436;2022-08-21T05:14:11;100970.59;;;17.65;100.00
18985;BME280;9626;52.552;13.436;2022-08-21T05:16:36;100982.28;;;17.63;100.00
18985;BME280;9626;52.552;13.436;2022-08-21T05:19:02;100976.81;;;17.66;100.00
18985;BME280;9626;52.552;13.436;2022-08-21T05:21:28;100982.78;;;17.72;100.00
18985;BME280;9626;52.552;13.436;2022-08-21T05:23:53;100983.03;;;17.66;100.00
18985;BME280;9626;52.552;13.436;2022-08-21T05:26:19;100980.66;;;17.79;100.00
18985;BME280;9626;52.552;13.436;2022-08-21T05:28:44;100991.53;;;17.76;100.00
18985;BME280;9626;52.552;13.436;2022-08-21T05:31:10;100987.25;;;17.72;100.00
18985;BME280;9626;52.552;13.436;2022-08-21T05:33:35;100997.56;;;17.81;100.00
18985;BME280;9626;52.552;13.436;2022-08-21T05:36:01;100993.13;;;17.80;100.00
18985;BME280;9626;52.552;13.436;2022-08-21T05:38:27;100995.81;;;17.80;100.00
18985;BME280;9626;52.552;13.436;2022-08-21T05:40:53;100989.44;;;17.83;100.00
18985;BME280;9626;52.552;13.436;2022-08-21T05:43:20;100998.47;;;17.80;100.00
18985;BME280;9626;52.552;13.436;2022-08-21T05:45:46;100998.38;;;17.83;100.00
18985;BME280;9626;52.552;13.436;2022-08-21T05:48:15;100999.16;;;17.85;100.00
18985;BME280;9626;52.552;13.436;2022-08-21T05:50:42;100991.88;;;17.68;100.00
18985;BME280;9626;52.552;13.436;2022-08-21T05:53:08;100998.25;;;17.66;100.00
18985;BME280;9626;52.552;13.436;2022-08-21T05:55:35;100994.19;;;17.76;100.00
18985;BME280;9626;52.552;13.436;2022-08-21T05:58:02;100999.22;;;17.84;100.00
18985;BME280;9626;52.552;13.436;2022-08-21T06:00:28;100998.91;;;17.92;100.00
18985;BME280;9626;52.552;13.436;2022-08-21T06:03:20;100996.09;;;17.95;100.00
18985;BME280;9626;52.552;13.436;2022-08-21T06:05:47;100997.63;;;18.00;100.00
18985;BME280;9626;52.552;13.436;2022-08-21T06:08:14;100998.63;;;17.98;100.00
18985;BME280;9626;52.552;13.436;2022-08-21T06:10:39;100989.59;;;18.00;100.00
18985;BME280;9626;52.552;13.436;2022-08-21T06:13:05;101005.56;;;18.02;100.00
18985;BME280;9626;52.552;13.436;2022-08-21T06:15:30;100997.69;;;17.99;100.00
18985;BME280;9626;52.552;13.436;2022-08-21T06:17:56;101001.38;;;17.96;100.00
18985;BME280;9626;52.552;13.436;2022-08-21T06:20:22;101006.00;;;17.93;100.00
18985;BME280;9626;52.552;13.436;2022-08-21T06:22:48;101001.59;;;17.90;100.00
18985;BME280;9626;52.552;13.436;2022-08-21T06:25:13;101003.97;;;17.98;100.00
18985;BME280;9626;52.552;13.436;2022-08-21T06:27:39;100998.63;;;17.98;100.00
18985;BME280;9626;52.552;13.436;2022-08-21T06:30:06;100998.16;;;17.88;100.00
18985;BME280;9626;52.552;13.436;2022-08-21T06:32:32;101003.34;;;17.91;100.00
18985;BME280;9626;52.552;13.436;2022-08-21T06:34:58;101008.34;;;18.00;100.00
18985;BME280;9626;52.552;13.436;2022-08-21T06:37:23;101001.97;;;18.03;100.00
18985;BME280;9626;52.552;13.436;2022-08-21T06:39:49;101003.50;;;18.08;100.00
18985;BME280;9626;52.552;13.436;2022-08-21T06:42:15;100995.09;;;18.16;100.00
18985;BME280;9626;52.552;13.436;2022-08-21T06:44:42;101006.19;;;18.28;100.00
18985;BME280;9626;52.552;13.436;2022-08-21T06:47:08;101006.03;;;18.31;100.00
18985;BME280;9626;52.552;13.436;2022-08-21T06:49:34;101004.16;;;18.33;100.00
18985;BME280;9626;52.552;13.436;2022-08-21T06:52:00;101001.97;;;18.41;100.00
18985;BME280;9626;52.552;13.436;2022-08-21T06:54:25;101009.78;;;18.46;100.00
18985;BME280;9626;52.552;13.436;2022-08-21T06:56:51;101004.59;;;18.42;100.00
18985;BME280;9626;52.552;13.436;2022-08-21T06:59:17;101003.44;;;18.48;100.00
18985;BME280;9626;52.552;13.436;2022-08-21T07:01:42;101005.16;;;18.49;100.00
18985;BME280;9626;52.552;13.436;2022-08-21T07:04:08;101013.22;;;18.49;100.00
18985;BME280;9626;52.552;13.436;2022-08-21T07:06:34;101004.81;;;18.57;100.00
18985;BME280;9626;52.552;13.436;2022-08-21T07:09:22;101000.22;;;18.59;100.00
18985;BME280;9626;52.552;13.436;2022-08-21T07:11:50;101006.00;;;18.69;100.00
18985;BME280;9626;52.552;13.436;2022-08-21T07:14:16;100997.44;;;18.80;100.00
18985;BME280;9626;52.552;13.436;2022-08-21T07:16:42;100999.03;;;18.84;100.00
18985;BME280;9626;52.552;13.436;2022-08-21T07:19:07;100998.59;;;18.93;100.00
18985;BME280;9626;52.552;13.436;2022-08-21T07:21:33;100994.81;;;18.97;100.00
18985;BME280;9626;52.552;13.436;2022-08-21T07:23:59;100997.44;;;18.99;100.00
18985;BME280;9626;52.552;13.436;2022-08-21T07:26:24;100996.13;;;19.07;100.00
18985;BME280;9626;52.552;13.436;2022-08-21T07:29:15;100996.69;;;19.14;100.00
18985;BME280;9626;52.552;13.436;2022-08-21T07:31:45;100996.81;;;19.11;100.00
18985;BME280;9626;52.552;13.436;2022-08-21T07:34:13;101001.72;;;19.20;100.00
18985;BME280;9626;52.552;13.436;2022-08-21T07:36:39;100990.50;;;19.30;100.00
18985;BME280;9626;52.552;13.436;2022-08-21T07:39:04;100985.84;;;19.33;100.00
18985;BME280;9626;52.552;13.436;2022-08-21T07:41:30;100984.81;;;19.36;100.00
18985;BME280;9626;52.552;13.436;2022-08-21T07:43:57;100983.09;;;19.35;100.00
18985;BME280;9626;52.552;13.436;2022-08-21T07:46:24;100997.13;;;19.40;100.00
18985;BME280;9626;52.552;13.436;2022-08-21T07:48:51;100989.53;;;19.48;100.00
18985;BME280;9626;52.552;13.436;2022-08-21T07:51:17;100990.97;;;19.55;100.00
18985;BME280;9626;52.552;13.436;2022-08-21T07:53:48;100992.63;;;19.58;100.00
18985;BME280;9626;52.552;13.436;2022-08-21T07:56:15;100998.56;;;19.65;100.00
18985;BME280;9626;52.552;13.436;2022-08-21T07:58:40;100986.16;;;19.62;100.00
18985;BME280;9626;52.552;13.436;2022-08-21T08:01:06;100988.91;;;19.61;100.00
18985;BME280;9626;52.552;13.436;2022-08-21T08:03:32;100997.34;;;19.70;100.00
18985;BME280;9626;52.552;13.436;2022-08-21T08:05:58;100993.28;;;19.79;100.00
18985;BME280;9626;52.552;13.436;2022-08-21T08:08:27;100995.53;;;19.88;100.00
18985;BME280;9626;52.552;13.436;2022-08-21T08:11:14;100994.00;;;20.00;100.00
18985;BME280;9626;52.552;13.436;2022-08-21T08:13:49;100998.44;;;20.17;100.00
18985;BME280;9626;52.552;13.436;2022-08-21T08:16:15;100995.47;;;20.22;100.00
18985;BME280;9626;52.552;13.436;2022-08-21T08:18:59;100994.38;;;20.42;95.76
18985;BME280;9626;52.552;13.436;2022-08-21T08:21:43;100989.97;;;20.57;93.78
18985;BME280;9626;52.552;13.436;2022-08-21T08:24:08;100973.38;;;20.65;91.57
18985;BME280;9626;52.552;13.436;2022-08-21T08:26:34;100987.53;;;20.84;89.92
18985;BME280;9626;52.552;13.436;2022-08-21T08:28:59;100980.66;;;20.94;87.18
18985;BME280;9626;52.552;13.436;2022-08-21T08:31:25;100983.47;;;21.23;86.02
18985;BME280;9626;52.552;13.436;2022-08-21T08:33:51;100988.41;;;21.45;82.97
18985;BME280;9626;52.552;13.436;2022-08-21T08:36:17;100989.72;;;21.69;80.73
18985;BME280;9626;52.552;13.436;2022-08-21T08:38:44;100995.03;;;21.85;80.85
18985;BME280;9626;52.552;13.436;2022-08-21T08:43:42;100991.50;;;21.84;75.50
18985;BME280;9626;52.552;13.436;2022-08-21T08:46:13;100984.84;;;21.90;74.46
18985;BME280;9626;52.552;13.436;2022-08-21T08:48:46;100989.25;;;21.91;74.52
18985;BME280;9626;52.552;13.436;2022-08-21T08:51:23;100991.28;;;21.87;76.03
18985;BME280;9626;52.552;13.436;2022-08-21T08:53:59;100988.78;;;21.84;74.44
18985;BME280;9626;52.552;13.436;2022-08-21T08:56:32;100982.59;;;21.68;75.74
18985;BME280;9626;52.552;13.436;2022-08-21T08:59:03;100976.91;;;21.58;76.74
18985;BME280;9626;52.552;13.436;2022-08-21T09:01:32;100979.38;;;21.47;74.13
18985;BME280;9626;52.552;13.436;2022-08-21T09:03:58;100971.75;;;21.39;76.26
18985;BME280;9626;52.552;13.436;2022-08-21T09:17:36;100978.25;;;21.20;74.39
18985;BME280;9626;52.552;13.436;2022-08-21T09:20:37;100982.09;;;21.16;71.73
18985;BME280;9626;52.552;13.436;2022-08-21T09:26:07;100977.06;;;21.10;69.93
18985;BME280;9626;52.552;13.436;2022-08-21T09:28:37;100982.44;;;21.10;71.55
18985;BME280;9626;52.552;13.436;2022-08-21T09:31:07;100981.50;;;21.11;72.82
18985;BME280;9626;52.552;13.436;2022-08-21T09:33:33;100975.06;;;21.14;72.31
18985;BME280;9626;52.552;13.436;2022-08-21T09:35:58;100971.69;;;21.10;72.24
18985;BME280;9626;52.552;13.436;2022-08-21T09:38:31;100978.31;;;21.04;75.03
18985;BME280;9626;52.552;13.436;2022-08-21T09:41:09;100976.56;;;21.03;73.72
18985;BME280;9626;52.552;13.436;2022-08-21T09:43:40;100971.69;;;21.10;72.31
18985;BME280;9626;52.552;13.436;2022-08-21T09:46:20;100982.94;;;21.17;72.54
18985;BME280;9626;52.552;13.436;2022-08-21T09:48:49;100972.97;;;21.19;72.32
18985;BME280;9626;52.552;13.436;2022-08-21T09:51:22;100965.94;;;21.16;74.41
18985;BME280;9626;52.552;13.436;2022-08-21T09:53:55;100972.50;;;21.26;71.15
18985;BME280;9626;52.552;13.436;2022-08-21T09:56:29;100980.56;;;21.26;71.56
18985;BME280;9626;52.552;13.436;2022-08-21T09:59:16;100979.06;;;21.37;69.81
18985;BME280;9626;52.552;13.436;2022-08-21T10:01:46;100975.88;;;21.44;69.21
18985;BME280;9626;52.552;13.436;2022-08-21T10:04:12;100979.19;;;21.50;69.35
18985;BME280;9626;52.552;13.436;2022-08-21T10:06:37;100982.16;;;21.45;68.48
18985;BME280;9626;52.552;13.436;2022-08-21T10:11:35;100979.00;;;21.53;71.34
18985;BME280;9626;52.552;13.436;2022-08-21T10:14:18;100972.75;;;21.52;70.93
18985;BME280;9626;52.552;13.436;2022-08-21T10:17:01;100981.44;;;21.57;68.79
18985;BME280;9626;52.552;13.436;2022-08-21T10:22:32;100975.28;;;21.70;69.77
18985;BME280;9626;52.552;13.436;2022-08-21T10:28:00;100988.97;;;21.67;68.91
18985;BME280;9626;52.552;13.436;2022-08-21T10:30:52;100979.16;;;21.66;65.13
18985;BME280;9626;52.552;13.436;2022-08-21T10:33:42;100984.06;;;21.43;65.65
18985;BME280;9626;52.552;13.436;2022-08-21T10:36:21;100978.88;;;21.40;65.63
18985;BME280;9626;52.552;13.436;2022-08-21T10:38:59;100983.91;;;21.46;67.36
18985;BME280;9626;52.552;13.436;2022-08-21T10:41:47;100979.06;;;21.51;64.24
18985;BME280;9626;52.552;13.436;2022-08-21T10:47:28;100985.28;;;21.53;64.61
18985;BME280;9626;52.552;13.436;2022-08-21T10:56:18;100982.63;;;21.97;63.39
18985;BME280;9626;52.552;13.436;2022-08-21T10:58:56;100980.69;;;21.99;59.73
18985;BME280;9626;52.552;13.436;2022-08-21T11:01:33;100980.09;;;21.93;56.23
18985;BME280;9626;52.552;13.436;2022-08-21T11:04:19;100980.59;;;21.86;58.11
18985;BME280;9626;52.552;13.436;2022-08-21T11:06:49;100979.72;;;21.85;56.83
18985;BME280;9626;52.552;13.436;2022-08-21T11:09:20;100985.88;;;21.73;55.36
18985;BME280;9626;52.552;13.436;2022-08-21T11:12:31;100977.81;;;21.87;56.81
18985;BME280;9626;52.552;13.436;2022-08-21T11:17:49;100982.97;;;22.19;55.80
18985;BME280;9626;52.552;13.436;2022-08-21T11:20:40;100979.81;;;22.27;56.31
18985;BME280;9626;52.552;13.436;2022-08-21T11:23:33;100975.25;;;22.27;55.38
18985;BME280;9626;52.552;13.436;2022-08-21T11:26:07;100982.41;;;22.43;55.10
18985;BME280;9626;52.552;13.436;2022-08-21T11:28:55;100977.16;;;22.54;54.66
18985;BME280;9626;52.552;13.436;2022-08-21T11:31:31;100973.19;;;22.60;52.59
18985;BME280;9626;52.552;13.436;2022-08-21T11:37:12;100973.41;;;22.84;51.07
18985;BME280;9626;52.552;13.436;2022-08-21T11:42:40;100972.25;;;22.88;46.03
18985;BME280;9626;52.552;13.436;2022-08-21T11:45:25;100965.88;;;22.89;46.69
18985;BME280;9626;52.552;13.436;2022-08-21T11:48:15;100968.56;;;22.89;45.05
18985;BME280;9626;52.552;13.436;2022-08-21T11:50:43;100968.03;;;22.97;45.67
18985;BME280;9626;52.552;13.436;2022-08-21T12:00:47;100959.97;;;23.10;45.94
18985;BME280;9626;52.552;13.436;2022-08-21T12:03:38;100958.00;;;23.26;46.50
18985;BME280;9626;52.552;13.436;2022-08-21T12:06:38;100959.84;;;23.39;42.46
18985;BME280;9626;52.552;13.436;2022-08-21T12:09:31;100955.41;;;23.38;42.42
18985;BME280;9626;52.552;13.436;2022-08-21T12:12:12;100958.53;;;23.32;43.23
18985;BME280;9626;52.552;13.436;2022-08-21T12:14:50;100956.03;;;23.28;43.87
18985;BME280;9626;52.552;13.436;2022-08-21T12:17:37;100951.06;;;23.22;43.79
18985;BME280;9626;52.552;13.436;2022-08-21T12:23:18;100944.03;;;23.33;42.31
18985;BME280;9626;52.552;13.436;2022-08-21T12:28:39;100942.44;;;23.43;42.40
18985;BME280;9626;52.552;13.436;2022-08-21T12:31:21;100948.72;;;23.56;43.00
18985;BME280;9626;52.552;13.436;2022-08-21T12:34:01;100948.28;;;23.75;43.79
18985;BME280;9626;52.552;13.436;2022-08-21T12:36:59;100943.31;;;23.69;43.55
18985;BME280;9626;52.552;13.436;2022-08-21T12:39:27;100936.50;;;23.76;44.15
18985;BME280;9626;52.552;13.436;2022-08-21T12:42:15;100940.59;;;23.82;42.39
18985;BME280;9626;52.552;13.436;2022-08-21T12:44:54;100944.81;;;23.73;43.11
18985;BME280;9626;52.552;13.436;2022-08-21T12:47:30;100943.00;;;23.74;42.88
18985;BME280;9626;52.552;13.436;2022-08-21T12:50:05;100942.13;;;23.86;39.91
18985;BME280;9626;52.552;13.436;2022-08-21T12:52:44;100930.13;;;23.90;40.63
18985;BME280;9626;52.552;13.436;2022-08-21T12:55:14;100946.75;;;23.84;41.47
18985;BME280;9626;52.552;13.436;2022-08-21T12:57:43;100939.41;;;23.86;42.39
18985;BME280;9626;52.552;13.436;2022-08-21T13:00:12;100940.28;;;24.00;41.80
18985;BME280;9626;52.552;13.436;2022-08-21T13:02:47;100933.34;;;23.95;41.91
18985;BME280;9626;52.552;13.436;2022-08-21T13:05:18;100934.66;;;24.03;42.46
18985;BME280;9626;52.552;13.436;2022-08-21T13:07:47;100931.06;;;24.02;43.61
18985;BME280;9626;52.552;13.436;2022-08-21T13:10:26;100930.13;;;23.90;43.01
18985;BME280;9626;52.552;13.436;2022-08-21T13:12:59;100931.19;;;24.01;43.65
18985;BME280;9626;52.552;13.436;2022-08-21T13:15:30;100938.63;;;24.10;43.93
18985;BME280;9626;52.552;13.436;2022-08-21T13:17:57;100933.97;;;24.12;43.29
18985;BME280;9626;52.552;13.436;2022-08-21T13:20:40;100927.19;;;24.30;42.70
18985;BME280;9626;52.552;13.436;2022-08-21T13:23:25;100927.50;;;24.39;42.07
18985;BME280;9626;52.552;13.436;2022-08-21T13:25:52;100934.00;;;24.60;40.60
18985;BME280;9626;52.552;13.436;2022-08-21T13:28:17;100925.91;;;24.60;41.90
18985;BME280;9626;52.552;13.436;2022-08-21T13:30:49;100922.81;;;24.78;42.20
18985;BME280;9626;52.552;13.436;2022-08-21T13:33:18;100925.75;;;24.75;42.75
18985;BME280;9626;52.552;13.436;2022-08-21T13:35:52;100928.47;;;24.75;43.70
18985;BME280;9626;52.552;13.436;2022-08-21T13:38:41;100925.25;;;24.70;43.30
18985;BME280;9626;52.552;13.436;2022-08-21T13:43:57;100921.41;;;24.48;41.81
18985;BME280;9626;52.552;13.436;2022-08-21T13:46:27;100923.25;;;24.72;41.97
18985;BME280;9626;52.552;13.436;2022-08-21T13:48:54;100922.91;;;24.52;42.83
18985;BME280;9626;52.552;13.436;2022-08-21T13:51:20;100922.72;;;24.42;43.07
18985;BME280;9626;52.552;13.436;2022-08-21T13:53:49;100917.50;;;24.52;43.29
18985;BME280;9626;52.552;13.436;2022-08-21T13:56:28;100923.03;;;24.51;44.05
18985;BME280;9626;52.552;13.436;2022-08-21T13:58:56;100926.69;;;24.50;44.60
18985;BME280;9626;52.552;13.436;2022-08-21T14:01:36;100919.97;;;24.55;43.99
18985;BME280;9626;52.552;13.436;2022-08-21T14:04:26;100926.00;;;24.59;42.56
18985;BME280;9626;52.552;13.436;2022-08-21T14:06:55;100921.19;;;24.75;43.31